Benton Harbor, MI (49022)

5:53 AM EDT on July 28, 2016 (GMT -0400)
Bernice Riverview | | Change Station

Elev 659 ft 42.10 °N, 86.47 °W | Updated 9 minutes ago

Clear
Clear
67.0 °F
Feels Like 67.0 °F
N
0.0
Wind Variable Wind from SSE

Today
High -- | Low -- °F
--% Chance of Precip.
Yesterday
High -- | Low -- °F
Precip. -- in
Pressure 29.90 in
Visibility 8.0 miles
Clouds Clear
Dew Point 65 °F
Humidity 93%
Rainfall 0.00 in
Snow Depth Not available.
6:35 AM 9:08 PM
Waning Crescent, 34% visible
METAR KBEH 280853Z AUTO 00000KT 8SM CLR 19/18 A2991 RMK AO2 SLP124 T01940178 56008 $
Pressure 29.90 in
Visibility 8.0 miles
Clouds Clear
Dew Point 65 °F
Humidity 93%
Rainfall 0.00 in
Snow Depth Not available.
6:35 AM 9:08 PM
Waning Crescent, 34% visible
METAR KBEH 280853Z AUTO 00000KT 8SM CLR 19/18 A2991 RMK AO2 SLP124 T01940178 56008 $

10-Day Weather Forecast

Almanac

Astronomy

Jul. 28, 2016 Rise Set
Actual Time
Civil Twilight
Nautical Twilight
Astronomical Twilight
Moon
Length of Visible Light
Length of Day
Tomorrow will be .
, % of the Moon is Illuminated

Today's Extremes

State Highs State Lows

Community

WunderPhotos

Upload Photos

1,928,070 photos uploaded!

WunderBlog® & News

Nearby

Air Quality

  Air Quality AQ Index Pollutant
Not available.

Snow Depth

Station Depth Elevation

Earthquake Activity

City Distance Mag. Time & Date
Minimum magnitude displayed is 2.5.

Coastal Water Temperatures

Place Temperature

Stations

Nearby Weather Stations

Station Location Temp. Windchill Dew Point Humidity Wind Precip. Elev Updated Type
                   

Watches & Warnings

There are currently no watches in effect.